Time;durP1;ratioP1;P1;durP2;ratioP2;P2;SDS_P1;SDS_P2;PMS_P1;PMS_P2;Temp;Humidity;BMP_temperature;BMP_pressure;BME280_temperature;BME280_humidity;BME280_pressure;Samples;Min_cycle;Max_cycle;Signal;HPM_P1;HPM_P2
2023/01/16 00:00:31;;;;;;;8.50;2.37;;;4.60;99.90;;;;;;5082676;28;20431;-72
2023/01/16 00:02:56;;;;;;;5.10;2.63;;;4.70;99.90;;;;;;5080029;28;20418;-72
2023/01/16 00:05:22;;;;;;;5.00;2.37;;;5.60;99.90;;;;;;5084869;28;20434;-72
2023/01/16 00:07:47;;;;;;;6.05;2.55;;;4.40;99.90;;;;;;5079534;28;20418;-73
2023/01/16 00:10:14;;;;;;;5.03;3.30;;;4.80;99.90;;;;;;5098386;27;20428;-73
2023/01/16 00:12:39;;;;;;;6.15;3.75;;;4.40;99.90;;;;;;5097638;28;20449;-72
2023/01/16 00:15:05;;;;;;;5.85;2.95;;;4.70;99.90;;;;;;5092940;28;21213;-72
2023/01/16 00:17:31;;;;;;;5.10;2.90;;;4.80;99.90;;;;;;5068029;28;20413;-72
2023/01/16 00:19:57;;;;;;;5.80;3.10;;;4.60;99.90;;;;;;5065355;28;20518;-72
2023/01/16 00:22:22;;;;;;;8.40;3.77;;;4.30;99.90;;;;;;5070163;28;20428;-72
2023/01/16 00:24:48;;;;;;;7.23;3.83;;;4.30;99.90;;;;;;5071666;28;20892;-72
2023/01/16 00:27:14;;;;;;;8.30;3.30;;;4.40;99.90;;;;;;5069577;28;20506;-71
2023/01/16 00:29:39;;;;;;;6.03;3.33;;;4.40;99.90;;;;;;5073689;28;20450;-71
2023/01/16 00:32:05;;;;;;;7.43;4.00;;;4.70;99.90;;;;;;5081088;28;20911;-72
2023/01/16 00:34:30;;;;;;;5.70;4.00;;;4.40;99.90;;;;;;5064777;28;20493;-72
2023/01/16 00:36:56;;;;;;;8.73;3.80;;;4.70;99.90;;;;;;5103452;27;20821;-72
2023/01/16 00:39:22;;;;;;;6.53;3.43;;;4.60;99.90;;;;;;5081531;28;21040;-72
2023/01/16 00:41:47;;;;;;;6.95;3.75;;;4.50;99.90;;;;;;5079606;28;20752;-72
2023/01/16 00:44:13;;;;;;;6.03;3.87;;;4.70;99.90;;;;;;5071835;28;20939;-71
2023/01/16 00:46:39;;;;;;;5.95;3.80;;;4.40;99.90;;;;;;5080201;28;20423;-71
2023/01/16 00:49:05;;;;;;;6.53;3.78;;;4.50;99.90;;;;;;5073713;28;20433;-73
2023/01/16 00:51:30;;;;;;;7.60;3.90;;;4.20;99.90;;;;;;5073340;28;20432;-72
2023/01/16 00:53:56;;;;;;;8.80;4.07;;;4.30;99.90;;;;;;5069870;28;20428;-72
2023/01/16 00:56:22;;;;;;;8.93;4.05;;;4.40;99.90;;;;;;5086156;28;20423;-73
2023/01/16 00:58:47;;;;;;;11.23;4.30;;;4.50;99.90;;;;;;5066767;28;20515;-73
2023/01/16 01:01:13;;;;;;;6.60;3.63;;;4.50;99.90;;;;;;5067121;28;20415;-72
2023/01/16 01:03:39;;;;;;;5.57;3.35;;;4.60;99.90;;;;;;5079912;28;20426;-72
2023/01/16 01:06:06;;;;;;;6.78;3.50;;;6.20;99.90;;;;;;5065043;28;20498;-72
2023/01/16 01:08:32;;;;;;;6.85;3.63;;;4.10;99.90;;;;;;5073686;28;20418;-72
2023/01/16 01:10:57;;;;;;;7.27;3.33;;;4.50;99.90;;;;;;5089937;28;20447;-71
2023/01/16 01:13:23;;;;;;;6.20;2.70;;;4.10;99.90;;;;;;5106688;28;20397;-71
2023/01/16 01:15:49;;;;;;;11.27;4.10;;;4.10;99.90;;;;;;5102454;28;20425;-72
2023/01/16 01:18:14;;;;;;;5.60;2.95;;;4.30;99.90;;;;;;5075544;28;20426;-73
2023/01/16 01:20:40;;;;;;;8.85;3.38;;;4.60;99.90;;;;;;5071281;28;20905;-72
2023/01/16 01:23:06;;;;;;;5.88;2.45;;;4.10;99.90;;;;;;5074060;28;20429;-72
2023/01/16 01:25:31;;;;;;;10.15;3.70;;;4.10;99.90;;;;;;5073744;28;20521;-72
2023/01/16 01:27:57;;;;;;;7.97;3.13;;;4.10;99.90;;;;;;5051843;28;20466;-72
2023/01/16 01:30:22;;;;;;;6.60;3.13;;;4.00;99.90;;;;;;5067302;28;20428;-71
2023/01/16 01:32:48;;;;;;;7.20;3.50;;;4.30;99.90;;;;;;5094293;28;20429;-72
2023/01/16 01:35:16;;;;;;;8.65;3.65;;;4.00;99.90;;;;;;5066107;28;20426;-72
2023/01/16 01:37:41;;;;;;;9.30;3.67;;;4.00;99.90;;;;;;5075208;28;20421;-72
2023/01/16 01:40:08;;;;;;;7.50;3.90;;;4.30;99.90;;;;;;5070346;28;20427;-72
2023/01/16 01:42:44;;;;;;;9.02;3.70;;;4.00;99.90;;;;;;5049049;28;20783;-75
2023/01/16 01:45:16;;;;;;;4.47;2.47;;;4.40;99.90;;;;;;5069928;28;20438;-72
2023/01/16 01:47:51;;;;;;;5.32;2.70;;;4.20;99.90;;;;;;5069523;28;20419;-73
2023/01/16 01:50:31;;;;;;;4.82;3.05;;;3.90;99.90;;;;;;5067536;28;20858;-70
2023/01/16 01:53:01;;;;;;;6.22;2.42;;;3.80;99.90;;;;;;5071709;28;20940;-73
2023/01/16 01:55:27;;;;;;;9.20;3.30;;;4.00;99.90;;;;;;5074807;28;20430;-71
2023/01/16 01:57:58;;;;;;;4.63;2.63;;;4.00;99.90;;;;;;5074493;28;20426;-71
2023/01/16 02:00:26;;;;;;;6.93;2.92;;;3.50;99.90;;;;;;5077644;28;21165;-71
2023/01/16 02:03:06;;;;;;;4.80;2.40;;;4.60;99.90;;;;;;5069994;28;20434;-71
2023/01/16 02:05:44;;;;;;;7.13;2.80;;;3.70;99.90;;;;;;5070216;28;20438;-71
2023/01/16 02:10:47;;;;;;;13.68;3.05;;;3.60;99.90;;;;;;5020028;28;20796;-76
2023/01/16 02:13:13;;;;;;;8.85;3.58;;;3.70;99.90;;;;;;5019275;28;20423;-76
2023/01/16 02:19:15;;;;;;;6.03;2.37;;;3.50;99.90;;;;;;5028048;28;20435;-76
2023/01/16 02:21:39;;;;;;;6.82;3.28;;;3.40;99.90;;;;;;5021277;28;20421;-75
2023/01/16 02:24:31;;;;;;;9.05;3.17;;;3.40;99.90;;;;;;5000651;28;20468;-76
2023/01/16 02:26:59;;;;;;;7.15;2.60;;;3.40;99.90;;;;;;5016147;28;20438;-76
2023/01/16 02:29:45;;;;;;;8.95;3.60;;;3.90;99.90;;;;;;5028164;28;20496;-74
2023/01/16 02:32:10;;;;;;;15.60;4.65;;;3.70;99.90;;;;;;5026457;28;20518;-75
2023/01/16 02:34:59;;;;;;;9.77;3.20;;;4.70;99.90;;;;;;5025751;28;20851;-75
2023/01/16 02:37:42;;;;;;;5.82;2.78;;;4.40;99.90;;;;;;5019582;28;21012;-76
2023/01/16 02:40:41;;;;;;;9.55;2.95;;;3.90;99.90;;;;;;5026604;28;20441;-75
2023/01/16 02:43:15;;;;;;;6.90;3.25;;;3.70;99.90;;;;;;5028183;28;20422;-75
2023/01/16 02:45:56;;;;;;;8.05;3.22;;;4.10;99.90;;;;;;5010046;28;20439;-75
2023/01/16 02:48:25;;;;;;;8.20;3.33;;;3.90;99.90;;;;;;5010755;28;20403;-75
2023/01/16 02:51:05;;;;;;;8.97;3.70;;;4.20;99.90;;;;;;5027231;28;20461;-76
2023/01/16 02:54:03;;;;;;;10.50;2.83;;;4.20;99.90;;;;;;5024902;28;20427;-75
2023/01/16 02:56:51;;;;;;;11.95;3.47;;;4.10;99.90;;;;;;4993120;28;20440;-75
2023/01/16 02:59:17;;;;;;;5.05;2.47;;;4.20;99.90;;;;;;5009161;28;20435;-75
2023/01/16 03:01:46;;;;;;;8.00;2.70;;;3.70;99.90;;;;;;5027480;28;20525;-76
2023/01/16 03:04:41;;;;;;;6.00;2.72;;;4.80;99.90;;;;;;5025639;28;20485;-76
2023/01/16 03:08:01;;;;;;;9.27;3.30;;;4.20;99.90;;;;;;5025670;28;20427;-76
2023/01/16 03:10:34;;;;;;;7.65;3.33;;;4.00;99.90;;;;;;4968302;28;20443;-76
2023/01/16 03:13:37;;;;;;;8.00;2.85;;;4.10;99.90;;;;;;5024679;28;20427;-75
2023/01/16 03:16:18;;;;;;;11.07;3.67;;;4.20;99.90;;;;;;5035377;28;20496;-76
2023/01/16 03:19:00;;;;;;;6.03;2.35;;;4.20;99.90;;;;;;5024643;28;20415;-76
2023/01/16 03:21:45;;;;;;;11.52;3.60;;;4.30;99.90;;;;;;5026881;28;20431;-75
2023/01/16 03:24:27;;;;;;;9.00;3.17;;;4.30;99.90;;;;;;5017527;28;20435;-76
2023/01/16 03:27:11;;;;;;;7.53;3.40;;;3.90;99.90;;;;;;5008714;28;20435;-76
2023/01/16 03:29:51;;;;;;;9.98;3.72;;;4.00;99.90;;;;;;5026462;28;20426;-76
2023/01/16 03:32:46;;;;;;;10.47;4.83;;;4.20;99.90;;;;;;5025332;28;20427;-76
2023/01/16 03:35:18;;;;;;;8.05;3.97;;;4.20;99.90;;;;;;4992565;28;20516;-77
2023/01/16 03:37:56;;;;;;;7.65;4.00;;;4.20;99.90;;;;;;5006990;28;20515;-77
2023/01/16 03:40:29;;;;;;;7.10;3.50;;;4.20;99.90;;;;;;5014781;28;20427;-76
2023/01/16 03:43:13;;;;;;;8.30;3.63;;;4.20;99.90;;;;;;5025913;28;20637;-75
2023/01/16 03:45:44;;;;;;;7.35;4.07;;;4.10;99.90;;;;;;5026759;28;20868;-77
2023/01/16 03:48:27;;;;;;;6.85;3.70;;;4.40;99.90;;;;;;5025067;28;20785;-77
2023/01/16 03:50:58;;;;;;;9.05;4.25;;;4.40;99.90;;;;;;5025041;28;20434;-77
2023/01/16 03:53:30;;;;;;;6.45;4.15;;;4.30;99.90;;;;;;5025243;28;20438;-76
2023/01/16 03:56:01;;;;;;;9.25;4.32;;;4.20;99.90;;;;;;5007685;28;20431;-76
2023/01/16 03:58:35;;;;;;;9.50;4.80;;;4.60;99.90;;;;;;5025704;28;20769;-76
2023/01/16 04:01:10;;;;;;;7.13;4.25;;;4.30;99.90;;;;;;5020552;28;20506;-77
2023/01/16 04:03:52;;;;;;;8.95;4.40;;;4.50;99.90;;;;;;5024922;28;20806;-78
2023/01/16 04:06:39;;;;;;;7.72;5.10;;;4.20;99.90;;;;;;5021604;28;20431;-76
2023/01/16 04:09:11;;;;;;;10.70;4.70;;;4.40;99.90;;;;;;4988083;28;20521;-77
2023/01/16 04:11:39;;;;;;;8.40;5.10;;;4.70;99.90;;;;;;4987442;28;20468;-76
2023/01/16 04:14:09;;;;;;;7.13;4.30;;;4.60;99.90;;;;;;5002215;28;20438;-75
2023/01/16 04:16:36;;;;;;;8.05;5.00;;;4.10;99.90;;;;;;4995905;28;20449;-76
2023/01/16 04:19:03;;;;;;;8.32;5.65;;;4.50;99.90;;;;;;4986178;28;20469;-76
2023/01/16 04:21:31;;;;;;;7.82;6.18;;;4.50;99.90;;;;;;4980095;28;20442;-74
2023/01/16 04:23:59;;;;;;;8.40;6.13;;;4.80;99.90;;;;;;4989769;28;20445;-76
2023/01/16 04:26:25;;;;;;;11.85;6.43;;;4.40;99.90;;;;;;4985542;28;20636;-76
2023/01/16 04:28:54;;;;;;;14.43;8.00;;;3.00;99.90;;;;;;4985305;28;20430;-76
2023/01/16 04:31:22;;;;;;;14.05;6.97;;;4.70;99.90;;;;;;4986505;28;20445;-76
2023/01/16 04:33:47;;;;;;;9.98;6.93;;;4.40;99.90;;;;;;4997407;28;20423;-77
2023/01/16 04:36:13;;;;;;;9.60;7.82;;;4.70;99.90;;;;;;4985725;28;20442;-77
2023/01/16 04:38:39;;;;;;;12.80;8.00;;;4.60;99.90;;;;;;4968211;28;20431;-76
2023/01/16 04:41:04;;;;;;;10.38;7.45;;;4.70;99.90;;;;;;4986409;28;20499;-77
2023/01/16 04:43:30;;;;;;;11.80;8.45;;;4.30;99.90;;;;;;4985218;28;20960;-77
2023/01/16 04:45:56;;;;;;;13.35;8.07;;;4.80;99.90;;;;;;4996220;28;21002;-77
2023/01/16 04:48:21;;;;;;;15.73;8.40;;;4.40;99.90;;;;;;4986149;28;20818;-77
2023/01/16 04:50:49;;;;;;;15.70;8.73;;;4.30;99.90;;;;;;4985042;28;20438;-77
2023/01/16 04:53:15;;;;;;;14.82;9.98;;;4.80;99.90;;;;;;4984576;28;20561;-77
2023/01/16 04:55:40;;;;;;;12.70;9.17;;;5.60;99.90;;;;;;4986727;28;20493;-76
2023/01/16 04:58:06;;;;;;;13.23;9.37;;;4.70;99.90;;;;;;4986354;28;20433;-75
2023/01/16 05:00:32;;;;;;;13.07;8.93;;;4.70;99.90;;;;;;4986079;28;20437;-76
2023/01/16 05:02:57;;;;;;;13.15;9.57;;;4.10;99.90;;;;;;4984327;28;20766;-75
2023/01/16 05:05:23;;;;;;;14.73;9.75;;;4.60;99.90;;;;;;4984021;28;20449;-75
2023/01/16 05:08:34;;;;;;;17.45;9.93;;;4.60;99.90;;;;;;4983561;28;20433;-76
2023/01/16 05:10:34;;;;;;;14.55;9.20;;;4.40;99.90;;;;;;5004501;28;20520;-75
2023/01/16 05:13:00;;;;;;;14.88;10.90;;;4.50;99.90;;;;;;5004270;28;20507;-76
2023/01/16 05:15:26;;;;;;;17.65;10.45;;;4.10;99.90;;;;;;5010676;28;20419;-77
2023/01/16 05:17:52;;;;;;;16.23;10.27;;;4.00;99.90;;;;;;5008245;28;21162;-75
2023/01/16 05:20:18;;;;;;;14.38;9.88;;;4.10;99.90;;;;;;5008555;28;20442;-75
2023/01/16 05:22:44;;;;;;;14.68;10.70;;;3.80;99.90;;;;;;5008544;28;20428;-76
2023/01/16 05:25:09;;;;;;;14.05;11.18;;;4.20;99.90;;;;;;5008172;28;20444;-75
2023/01/16 05:27:35;;;;;;;14.55;10.60;;;3.70;99.90;;;;;;5008960;28;20436;-76
2023/01/16 05:30:00;;;;;;;14.55;11.23;;;4.50;99.90;;;;;;5009571;28;20839;-75
2023/01/16 05:32:26;;;;;;;16.05;12.75;;;4.50;99.90;;;;;;5007954;28;20420;-77
2023/01/16 05:34:52;;;;;;;18.70;12.70;;;3.80;99.90;;;;;;5004384;28;20425;-76
2023/01/16 05:37:17;;;;;;;19.70;12.88;;;3.90;99.90;;;;;;5006897;28;20935;-76
2023/01/16 05:39:43;;;;;;;17.58;12.52;;;4.60;99.90;;;;;;5009066;28;20836;-77
2023/01/16 05:42:20;;;;;;;18.45;13.02;;;4.10;99.90;;;;;;5007987;28;20460;-76
2023/01/16 05:44:51;;;;;;;16.90;12.77;;;4.00;99.90;;;;;;5007341;28;20968;-77
2023/01/16 05:47:19;;;;;;;20.45;13.60;;;3.60;99.90;;;;;;5006542;28;20524;-77
2023/01/16 05:49:45;;;;;;;18.73;14.23;;;3.90;99.90;;;;;;5019080;28;20442;-77
2023/01/16 05:52:11;;;;;;;18.90;13.57;;;3.70;99.90;;;;;;5022096;28;20499;-77
2023/01/16 05:54:37;;;;;;;23.45;14.07;;;4.00;99.90;;;;;;5006861;28;20452;-75
2023/01/16 05:57:02;;;;;;;19.38;13.68;;;3.60;99.90;;;;;;5006959;28;20424;-76
2023/01/16 05:59:28;;;;;;;15.68;12.15;;;4.00;99.90;;;;;;5008259;28;20433;-75
2023/01/16 06:01:54;;;;;;;18.73;14.35;;;5.30;99.90;;;;;;5012575;28;20413;-76
2023/01/16 06:04:19;;;;;;;21.92;13.68;;;4.20;99.90;;;;;;5023011;28;20439;-76
2023/01/16 06:06:48;;;;;;;16.45;13.15;;;4.10;99.90;;;;;;5021615;28;20440;-76
2023/01/16 06:09:14;;;;;;;17.25;12.93;;;4.10;99.90;;;;;;5007152;28;20433;-74
2023/01/16 06:11:40;;;;;;;19.60;13.77;;;4.10;99.90;;;;;;5005710;28;20799;-75
2023/01/16 06:14:05;;;;;;;16.90;12.47;;;3.80;99.90;;;;;;5008826;28;20424;-76
2023/01/16 06:16:32;;;;;;;16.97;12.47;;;3.80;99.90;;;;;;5008088;28;20524;-77
2023/01/16 06:18:58;;;;;;;20.60;13.30;;;3.70;99.90;;;;;;5007754;28;20435;-75
2023/01/16 06:21:23;;;;;;;16.83;12.03;;;3.70;99.90;;;;;;5008061;28;20405;-75
2023/01/16 06:23:49;;;;;;;16.15;12.27;;;4.20;99.90;;;;;;5008139;28;20523;-76
2023/01/16 06:26:15;;;;;;;17.48;11.45;;;4.00;99.90;;;;;;5006471;28;21001;-76
2023/01/16 06:28:40;;;;;;;16.13;11.95;;;4.00;99.90;;;;;;5006477;28;20424;-76
2023/01/16 06:31:06;;;;;;;15.18;10.85;;;4.00;99.90;;;;;;5006899;28;20799;-75
2023/01/16 06:33:32;;;;;;;19.02;11.70;;;3.40;99.90;;;;;;5007214;28;20937;-76
2023/01/16 06:35:58;;;;;;;16.30;11.33;;;3.90;99.90;;;;;;5007419;28;20423;-75
2023/01/16 06:38:24;;;;;;;16.27;10.93;;;3.70;99.90;;;;;;4989441;28;20425;-76
2023/01/16 06:40:55;;;;;;;16.95;10.60;;;3.50;99.90;;;;;;5005176;28;20671;-75
2023/01/16 06:43:27;;;;;;;20.17;11.53;;;4.70;99.90;;;;;;5005551;28;20428;-76
2023/01/16 06:45:53;;;;;;;15.60;10.48;;;3.80;99.90;;;;;;5011359;28;20430;-76
2023/01/16 06:48:19;;;;;;;19.05;10.55;;;3.70;99.90;;;;;;5015239;28;20464;-75
2023/01/16 06:50:45;;;;;;;15.77;10.23;;;3.70;99.90;;;;;;5004794;28;20877;-76
2023/01/16 06:53:11;;;;;;;14.10;9.65;;;3.60;99.90;;;;;;5006318;28;20456;-75
2023/01/16 06:55:38;;;;;;;12.02;9.07;;;3.30;99.90;;;;;;5007246;28;20428;-76
2023/01/16 06:58:03;;;;;;;14.27;9.50;;;3.70;99.90;;;;;;5006278;28;20938;-76
2023/01/16 07:00:29;;;;;;;14.60;9.13;;;3.80;99.90;;;;;;5006308;28;20417;-75
2023/01/16 07:02:56;;;;;;;14.50;9.07;;;3.50;99.90;;;;;;5007004;28;20433;-76
2023/01/16 07:05:26;;;;;;;16.65;9.40;;;3.20;99.90;;;;;;4988177;28;20437;-75
2023/01/16 07:07:52;;;;;;;13.63;7.80;;;3.10;99.90;;;;;;5006304;28;20904;-76
2023/01/16 07:10:21;;;;;;;10.68;8.00;;;3.30;99.90;;;;;;5022047;28;20435;-76
2023/01/16 07:12:54;;;;;;;12.38;7.88;;;3.40;99.90;;;;;;5008920;28;20471;-74
2023/01/16 07:23:45;;;;;;;16.45;7.35;;;3.70;99.90;;;;;;5006999;28;20447;-75
2023/01/16 07:26:12;;;;;;;13.27;7.43;;;3.50;99.90;;;;;;5026414;28;20483;-75
2023/01/16 07:28:39;;;;;;;12.82;6.10;;;3.10;99.90;;;;;;5025422;28;20983;-74
2023/01/16 07:31:06;;;;;;;10.23;6.00;;;3.40;99.90;;;;;;5027898;28;20419;-74
2023/01/16 07:33:33;;;;;;;14.57;6.47;;;3.10;99.90;;;;;;5026013;28;20423;-75
2023/01/16 07:35:58;;;;;;;9.05;6.38;;;3.20;99.90;;;;;;5024970;28;20439;-74
2023/01/16 07:38:24;;;;;;;10.93;6.07;;;3.10;99.90;;;;;;4994447;28;20912;-74
2023/01/16 07:40:50;;;;;;;10.77;6.53;;;3.60;99.90;;;;;;5021341;28;20425;-74
2023/01/16 07:43:15;;;;;;;15.93;7.10;;;3.00;99.90;;;;;;5022242;28;20606;-74
2023/01/16 07:45:41;;;;;;;12.33;6.10;;;3.20;99.90;;;;;;5023548;28;20446;-75
2023/01/16 07:48:07;;;;;;;10.80;5.82;;;3.50;99.90;;;;;;5007885;28;20435;-74
2023/01/16 07:50:33;;;;;;;11.60;5.72;;;3.00;99.90;;;;;;5026318;28;20453;-74
2023/01/16 07:52:58;;;;;;;10.98;5.65;;;3.70;99.90;;;;;;5026621;28;20418;-74
2023/01/16 07:55:24;;;;;;;12.00;5.80;;;3.10;99.90;;;;;;5027174;28;20418;-75
2023/01/16 07:57:50;;;;;;;13.07;5.50;;;3.20;99.90;;;;;;5025716;28;20473;-73
2023/01/16 08:00:16;;;;;;;12.23;5.53;;;3.70;99.90;;;;;;5024447;28;20419;-75
2023/01/16 08:02:42;;;;;;;9.68;5.38;;;3.60;99.90;;;;;;5026561;28;20847;-74
2023/01/16 08:05:08;;;;;;;11.80;5.63;;;3.60;99.90;;;;;;5024352;28;20441;-75
2023/01/16 08:07:35;;;;;;;10.77;5.28;;;3.60;99.90;;;;;;5023770;28;20419;-73
2023/01/16 08:10:01;;;;;;;14.88;5.93;;;3.70;99.90;;;;;;5025163;28;20514;-75
2023/01/16 08:12:26;;;;;;;9.73;4.80;;;3.60;99.90;;;;;;5026959;28;20490;-73
2023/01/16 08:14:52;;;;;;;11.03;5.57;;;3.20;99.90;;;;;;5032710;28;20425;-76
2023/01/16 08:17:18;;;;;;;7.83;4.60;;;3.30;99.90;;;;;;5033872;28;20629;-76
2023/01/16 08:19:43;;;;;;;12.80;5.32;;;3.60;99.90;;;;;;5022282;28;20481;-75
2023/01/16 08:22:09;;;;;;;15.32;5.93;;;3.60;99.90;;;;;;5024530;28;20481;-76
2023/01/16 08:24:35;;;;;;;11.15;5.22;;;3.40;99.90;;;;;;5025022;28;20458;-76
2023/01/16 08:27:00;;;;;;;13.00;4.75;;;3.80;99.90;;;;;;5025368;28;20458;-75
2023/01/16 08:29:26;;;;;;;9.70;4.40;;;3.30;99.90;;;;;;5026312;28;20494;-75
2023/01/16 08:31:52;;;;;;;12.07;4.47;;;3.90;99.90;;;;;;5024864;28;20553;-77
2023/01/16 08:34:17;;;;;;;10.32;6.07;;;3.90;99.90;;;;;;5007549;28;20476;-76
2023/01/16 08:36:43;;;;;;;11.82;5.72;;;3.40;99.90;;;;;;5005763;28;20476;-76
2023/01/16 08:39:10;;;;;;;13.27;5.50;;;3.90;99.90;;;;;;5025033;28;20552;-75
2023/01/16 08:52:37;;;;;;;10.65;5.15;;;3.50;99.90;;;;;;5021869;28;20427;-75
2023/01/16 08:55:04;;;;;;;8.30;4.50;;;4.10;99.90;;;;;;5025103;28;20446;-75
2023/01/16 08:57:29;;;;;;;9.60;4.40;;;3.90;99.90;;;;;;5006555;28;20433;-75
2023/01/16 08:59:56;;;;;;;7.77;3.80;;;3.50;99.90;;;;;;5025554;28;20410;-76
2023/01/16 09:02:23;;;;;;;10.50;4.03;;;3.80;99.90;;;;;;5023491;28;20894;-76
2023/01/16 09:04:49;;;;;;;7.45;4.00;;;4.00;99.90;;;;;;5005741;28;20439;-75
2023/01/16 09:07:15;;;;;;;8.20;4.32;;;3.60;99.90;;;;;;5023877;28;20434;-72
2023/01/16 09:09:41;;;;;;;12.93;5.82;;;4.10;99.90;;;;;;5003463;28;20437;-74
2023/01/16 09:14:56;;;;;;;8.05;4.28;;;3.50;99.90;;;;;;4996197;28;20745;-75
2023/01/16 09:17:23;;;;;;;10.25;4.90;;;4.00;99.90;;;;;;5004782;28;20756;-76
2023/01/16 09:19:49;;;;;;;10.40;4.80;;;4.20;99.90;;;;;;5001239;28;20460;-75
2023/01/16 09:22:15;;;;;;;9.45;5.25;;;3.80;99.90;;;;;;5006116;28;20486;-75
2023/01/16 09:24:40;;;;;;;9.65;4.90;;;4.20;99.90;;;;;;5002955;28;20448;-75
2023/01/16 09:27:06;;;;;;;9.95;4.43;;;4.30;99.90;;;;;;5004418;28;20433;-75
2023/01/16 09:29:32;;;;;;;8.75;4.80;;;4.10;99.90;;;;;;5005818;28;20392;-74
2023/01/16 09:31:58;;;;;;;9.48;4.43;;;3.80;99.90;;;;;;5005704;28;20522;-74
2023/01/16 09:34:24;;;;;;;7.53;4.97;;;4.00;99.90;;;;;;5005521;28;20408;-74
2023/01/16 09:36:50;;;;;;;8.77;3.83;;;4.30;99.90;;;;;;5004845;28;20554;-74
2023/01/16 09:39:17;;;;;;;8.02;4.43;;;4.30;99.90;;;;;;5003897;28;20497;-74
2023/01/16 09:44:44;;;;;;;7.00;4.07;;;4.00;99.90;;;;;;5004914;28;20459;-74
2023/01/16 09:47:10;;;;;;;8.27;3.72;;;4.60;99.90;;;;;;5004564;28;20440;-74
2023/01/16 09:49:49;;;;;;;9.63;5.00;;;4.20;99.90;;;;;;5003158;28;20527;-74
2023/01/16 10:00:56;;;;;;;6.70;3.28;;;4.20;99.90;;;;;;4997622;28;20428;-75
2023/01/16 10:03:21;;;;;;;7.80;3.95;;;4.00;99.90;;;;;;5004262;28;20506;-74
2023/01/16 10:06:24;;;;;;;5.15;3.08;;;4.00;99.90;;;;;;4987668;28;20879;-74
2023/01/16 10:08:57;;;;;;;7.57;2.65;;;4.40;99.90;;;;;;5027286;28;21123;-74
2023/01/16 10:11:32;;;;;;;5.63;3.10;;;3.90;99.90;;;;;;5038026;28;21161;-75
2023/01/16 10:14:03;;;;;;;5.97;2.78;;;4.20;99.90;;;;;;5011196;28;20514;-74
2023/01/16 10:16:39;;;;;;;4.45;2.65;;;3.80;99.90;;;;;;5027709;28;20449;-74
2023/01/16 10:19:27;;;;;;;4.97;2.70;;;4.40;99.90;;;;;;5006575;28;20534;-74
2023/01/16 10:22:23;;;;;;;5.88;2.50;;;4.00;99.90;;;;;;5009375;28;20439;-74
2023/01/16 10:24:57;;;;;;;6.40;2.95;;;4.20;99.90;;;;;;5028283;28;20945;-73
2023/01/16 10:27:34;;;;;;;5.82;2.50;;;4.10;99.90;;;;;;5031035;28;20426;-73
2023/01/16 10:30:13;;;;;;;7.85;2.42;;;4.10;99.90;;;;;;5027697;28;20979;-73
2023/01/16 10:33:02;;;;;;;8.20;3.03;;;4.50;99.90;;;;;;5033707;28;20418;-73
2023/01/16 10:35:38;;;;;;;4.70;2.08;;;4.30;99.90;;;;;;5023235;28;20921;-73
2023/01/16 10:38:45;;;;;;;5.43;2.50;;;4.00;99.90;;;;;;5026585;28;20483;-73
2023/01/16 10:49:55;;;;;;;4.33;1.83;;;4.00;99.90;;;;;;5022903;28;20563;-74
2023/01/16 10:52:22;;;;;;;4.07;1.35;;;4.30;99.90;;;;;;5004697;28;20533;-74
2023/01/16 10:54:48;;;;;;;5.50;1.40;;;4.30;99.90;;;;;;5008258;28;20438;-74
2023/01/16 10:57:18;;;;;;;4.07;1.48;;;4.20;99.90;;;;;;5027626;28;20442;-72
2023/01/16 10:59:46;;;;;;;3.15;1.30;;;3.80;99.90;;;;;;5024396;28;20432;-73
2023/01/16 11:02:21;;;;;;;2.40;1.10;;;4.90;99.90;;;;;;5031779;28;20449;-73
2023/01/16 11:04:47;;;;;;;3.35;1.00;;;3.90;99.90;;;;;;5024270;28;20442;-73
2023/01/16 11:07:18;;;;;;;1.80;0.80;;;4.30;99.90;;;;;;5029047;28;20414;-73
2023/01/16 11:09:47;;;;;;;1.90;0.90;;;3.50;99.90;;;;;;5011656;28;20427;-74
2023/01/16 11:18:29;;;;;;;1.67;0.70;;;3.90;99.90;;;;;;5000350;28;21678;-73
2023/01/16 11:20:57;;;;;;;1.75;0.60;;;3.90;99.90;;;;;;5006925;28;20475;-73
2023/01/16 11:23:26;;;;;;;1.30;0.68;;;3.80;99.90;;;;;;5009806;28;20427;-73
2023/01/16 11:25:56;;;;;;;1.33;0.80;;;3.60;99.90;;;;;;5008592;28;20976;-73
2023/01/16 11:28:29;;;;;;;1.33;0.60;;;3.70;99.90;;;;;;4993638;28;20418;-73
2023/01/16 11:30:58;;;;;;;1.30;0.70;;;3.60;99.90;;;;;;5026762;28;20573;-73
2023/01/16 11:33:34;;;;;;;1.75;0.70;;;4.00;99.90;;;;;;5025846;28;20476;-73
2023/01/16 11:36:02;;;;;;;2.20;0.80;;;3.80;99.90;;;;;;5010738;28;20434;-73
2023/01/16 11:38:29;;;;;;;1.13;0.60;;;3.30;99.90;;;;;;5026329;28;20458;-74
2023/01/16 11:40:57;;;;;;;0.88;0.60;;;3.40;99.90;;;;;;5026180;28;20434;-72
2023/01/16 11:46:36;;;;;;;1.05;0.50;;;3.80;99.90;;;;;;5022027;28;20953;-75
2023/01/16 11:49:19;;;;;;;3.00;1.00;;;3.80;99.90;;;;;;5022453;28;20423;-74
2023/01/16 11:51:51;;;;;;;1.58;0.90;;;3.40;99.90;;;;;;5021435;28;20429;-73
2023/01/16 11:54:31;;;;;;;1.15;0.93;;;3.90;99.90;;;;;;5025200;28;20462;-74
2023/01/16 11:57:14;;;;;;;3.30;1.55;;;3.50;99.90;;;;;;5026273;28;21117;-76
2023/01/16 12:00:01;;;;;;;2.22;0.93;;;3.70;99.90;;;;;;5025806;28;20408;-73
2023/01/16 12:02:47;;;;;;;1.17;1.00;;;3.40;99.90;;;;;;5021329;28;20434;-73
2023/01/16 12:08:19;;;;;;;2.35;0.93;;;3.30;99.90;;;;;;5026341;28;20773;-74
2023/01/16 12:10:56;;;;;;;1.33;1.07;;;3.60;99.90;;;;;;5025172;28;22142;-74
2023/01/16 12:16:44;;;;;;;1.35;1.08;;;4.60;99.90;;;;;;5020864;28;20798;-78
2023/01/16 12:19:46;;;;;;;2.17;1.30;;;3.90;99.90;;;;;;5023452;28;20408;-77
2023/01/16 12:22:27;;;;;;;1.90;1.20;;;3.70;99.90;;;;;;5024505;28;20411;-77
2023/01/16 12:25:02;;;;;;;3.38;1.63;;;3.40;99.90;;;;;;5021728;28;20561;-78
2023/01/16 12:27:39;;;;;;;1.38;1.10;;;4.00;99.90;;;;;;5024724;28;20411;-77
2023/01/16 12:30:30;;;;;;;2.50;0.90;;;5.70;99.90;;;;;;5023865;28;20423;-78
2023/01/16 12:33:21;;;;;;;2.95;1.10;;;4.00;99.90;;;;;;5025934;28;20948;-79
2023/01/16 12:35:56;;;;;;;0.90;0.82;;;3.90;99.90;;;;;;5024712;28;20434;-77
2023/01/16 12:38:36;;;;;;;2.10;1.23;;;4.00;99.90;;;;;;5023595;28;20461;-77
2023/01/16 12:44:30;;;;;;;2.60;1.20;;;4.10;99.90;;;;;;5014053;28;20415;-76
2023/01/16 12:46:57;;;;;;;2.15;1.23;;;5.50;99.90;;;;;;5023176;28;21544;-76
2023/01/16 12:49:30;;;;;;;2.65;1.48;;;3.70;99.90;;;;;;5024381;28;20476;-79
2023/01/16 12:51:59;;;;;;;1.90;1.00;;;6.10;99.90;;;;;;5024661;28;20485;-79
2023/01/16 12:54:51;;;;;;;3.13;1.60;;;3.70;99.90;;;;;;5009236;28;20427;-79
2023/01/16 12:57:35;;;;;;;2.17;1.25;;;3.70;99.90;;;;;;5025074;28;20415;-79
2023/01/16 13:00:09;;;;;;;3.88;1.48;;;3.80;99.90;;;;;;5011500;28;20907;-77
2023/01/16 13:02:46;;;;;;;3.90;1.48;;;3.80;99.90;;;;;;5006697;28;20435;-78
2023/01/16 13:05:22;;;;;;;3.83;1.80;;;3.70;99.90;;;;;;5004368;28;20444;-78
2023/01/16 13:07:53;;;;;;;1.42;1.10;;;3.80;99.90;;;;;;5021357;28;20477;-78
2023/01/16 13:13:25;;;;;;;2.90;1.58;;;4.00;99.90;;;;;;5024610;28;20427;-79
2023/01/16 13:16:16;;;;;;;3.83;1.75;;;4.00;99.90;;;;;;5006390;28;20455;-78
2023/01/16 13:18:50;;;;;;;2.42;1.55;;;3.80;99.90;;;;;;5023123;28;21225;-78
2023/01/16 13:21:22;;;;;;;2.63;1.50;;;4.10;99.90;;;;;;5010474;28;20423;-79
2023/01/16 13:23:54;;;;;;;4.35;1.88;;;3.80;99.90;;;;;;5024088;28;20480;-79
2023/01/16 13:26:21;;;;;;;2.65;1.45;;;3.80;99.90;;;;;;5022642;28;20442;-80
2023/01/16 13:28:49;;;;;;;3.78;1.58;;;4.00;99.90;;;;;;5024177;28;20477;-79
2023/01/16 13:31:42;;;;;;;2.08;1.60;;;4.10;99.90;;;;;;5012777;28;20462;-79
2023/01/16 13:34:23;;;;;;;7.68;2.55;;;4.50;99.90;;;;;;5023947;28;20423;-80
2023/01/16 13:37:43;;;;;;;5.10;1.75;;;4.40;99.90;;;;;;5024106;28;20434;-79
2023/01/16 13:40:12;;;;;;;4.88;2.88;;;4.20;99.90;;;;;;4968285;28;20428;-80
2023/01/16 13:42:48;;;;;;;3.47;2.05;;;4.20;99.90;;;;;;4966961;28;20420;-80
2023/01/16 13:45:49;;;;;;;2.70;1.90;;;4.40;99.90;;;;;;4973310;28;20461;-75
2023/01/16 13:48:19;;;;;;;4.03;2.25;;;4.20;99.90;;;;;;5026961;28;20959;-74
2023/01/16 13:51:00;;;;;;;3.80;2.40;;;4.70;99.90;;;;;;5028312;28;21327;-74
2023/01/16 13:53:28;;;;;;;2.80;2.53;;;4.70;99.90;;;;;;5028720;28;20411;-74
2023/01/16 13:56:07;;;;;;;4.97;2.70;;;4.60;99.90;;;;;;5028202;28;20403;-74
2023/01/16 13:58:42;;;;;;;3.15;2.42;;;4.60;99.90;;;;;;5027391;28;20423;-73
2023/01/16 14:01:33;;;;;;;3.70;2.42;;;4.40;99.90;;;;;;5025742;28;20978;-73
2023/01/16 14:04:14;;;;;;;3.30;2.20;;;4.60;99.90;;;;;;5009360;28;20438;-74
2023/01/16 14:06:48;;;;;;;3.83;2.67;;;4.40;99.90;;;;;;5027758;28;20498;-74
2023/01/16 14:09:16;;;;;;;4.40;2.60;;;4.60;99.90;;;;;;5027458;28;20411;-74
2023/01/16 14:12:23;;;;;;;4.50;2.50;;;4.50;99.90;;;;;;5026482;28;20415;-74
2023/01/16 14:17:52;;;;;;;4.45;2.90;;;4.50;99.90;;;;;;5027503;28;20411;-74
2023/01/16 14:20:37;;;;;;;3.15;2.88;;;4.80;99.90;;;;;;5026084;28;20445;-75
2023/01/16 14:25:54;;;;;;;3.78;2.53;;;4.60;99.90;;;;;;5027258;28;20436;-75
2023/01/16 14:28:21;;;;;;;3.33;2.60;;;4.00;99.90;;;;;;5009921;28;20418;-75
2023/01/16 14:30:47;;;;;;;4.50;3.08;;;4.40;99.90;;;;;;5026456;28;20516;-73